Time;durP1;ratioP1;P1;durP2;ratioP2;P2;SDS_P1;SDS_P2;PMS_P1;PMS_P2;Temp;Humidity;BMP_temperature;BMP_pressure;BME280_temperature;BME280_humidity;BME280_pressure;Samples;Min_cycle;Max_cycle;Signal;HPM_P1;HPM_P2
2022/08/04 00:01:07;;;;;;;0.50;0.20;;;24.80;70.30;;;;;;4982848;28;20527;-36
2022/08/04 00:03:40;;;;;;;0.43;0.30;;;24.80;70.40;;;;;;4984549;28;20035;-38
2022/08/04 00:06:14;;;;;;;1.35;0.35;;;24.80;70.10;;;;;;4986576;28;20042;-37
2022/08/04 00:08:45;;;;;;;0.30;0.20;;;24.80;70.70;;;;;;4987699;28;20566;-42
2022/08/04 00:11:14;;;;;;;0.88;0.30;;;24.80;70.10;;;;;;4987384;28;20054;-37
2022/08/04 00:13:41;;;;;;;0.65;0.50;;;24.80;70.30;;;;;;4983937;28;20063;-37
2022/08/04 00:16:08;;;;;;;0.30;0.20;;;24.80;70.10;;;;;;5005653;28;20046;-37
2022/08/04 00:19:04;;;;;;;0.40;0.40;;;24.90;69.90;;;;;;4982226;28;20062;-44
2022/08/04 00:21:30;;;;;;;0.35;0.30;;;24.80;70.20;;;;;;4972885;28;20078;-39
2022/08/04 00:23:56;;;;;;;0.63;0.30;;;24.80;70.20;;;;;;4983668;28;20050;-37
2022/08/04 00:26:21;;;;;;;0.20;0.20;;;24.80;70.40;;;;;;5003961;28;20526;-38
2022/08/04 00:28:47;;;;;;;0.30;0.30;;;24.80;70.40;;;;;;4988803;28;21837;-37
2022/08/04 00:31:14;;;;;;;1.05;0.50;;;24.70;70.00;;;;;;4980334;28;20051;-38
2022/08/04 00:33:42;;;;;;;0.20;0.20;;;24.70;70.80;;;;;;4984738;28;20541;-38
2022/08/04 00:36:07;;;;;;;5.97;0.57;;;24.80;70.30;;;;;;4987049;28;20125;-37
2022/08/04 00:38:33;;;;;;;0.20;0.20;;;24.80;70.00;;;;;;4985663;28;20513;-45
2022/08/04 00:41:14;;;;;;;0.30;0.17;;;24.70;70.40;;;;;;4987218;28;20101;-37
2022/08/04 00:44:01;;;;;;;0.40;0.20;;;24.70;70.00;;;;;;5016437;28;20046;-38
2022/08/04 00:47:00;;;;;;;0.43;0.28;;;24.70;70.30;;;;;;4985243;28;20058;-37
2022/08/04 00:49:56;;;;;;;0.43;0.20;;;24.80;70.00;;;;;;4984041;28;20045;-37
2022/08/04 00:52:30;;;;;;;0.10;0.10;;;24.80;70.30;;;;;;4961783;28;20431;-36
2022/08/04 00:55:02;;;;;;;0.30;0.20;;;24.70;70.30;;;;;;4986131;28;20117;-37
2022/08/04 00:57:36;;;;;;;1.35;0.20;;;24.70;70.20;;;;;;4986204;28;20149;-37
2022/08/04 01:00:08;;;;;;;0.30;0.30;;;24.70;70.20;;;;;;4986892;28;20109;-38
2022/08/04 01:02:39;;;;;;;0.43;0.20;;;24.70;70.60;;;;;;4985483;28;20062;-40
2022/08/04 01:05:44;;;;;;;0.50;0.30;;;24.70;70.30;;;;;;4987104;28;20049;-38
2022/08/04 01:08:33;;;;;;;0.93;0.38;;;24.70;70.00;;;;;;4986442;28;20033;-39
2022/08/04 01:11:33;;;;;;;1.10;0.20;;;24.70;70.80;;;;;;5001302;28;20129;-37
2022/08/04 01:14:28;;;;;;;0.30;0.20;;;24.70;70.60;;;;;;4985288;28;20094;-38
2022/08/04 01:16:57;;;;;;;0.30;0.30;;;24.70;71.10;;;;;;4985504;28;20130;-37
2022/08/04 01:19:52;;;;;;;0.98;0.10;;;24.70;70.30;;;;;;5003126;28;20034;-38
2022/08/04 01:22:24;;;;;;;0.45;0.30;;;24.70;70.30;;;;;;4987057;28;20117;-38
2022/08/04 01:25:13;;;;;;;0.22;0.20;;;24.70;70.10;;;;;;4982410;28;20180;-38
2022/08/04 01:27:48;;;;;;;0.32;0.30;;;24.70;70.10;;;;;;4984163;28;20091;-37
2022/08/04 01:30:13;;;;;;;0.20;0.20;;;24.70;70.50;;;;;;5001008;28;20054;-37
2022/08/04 01:32:50;;;;;;;0.28;0.28;;;24.70;70.40;;;;;;4984679;28;20097;-37
2022/08/04 01:35:23;;;;;;;0.30;0.20;;;24.70;70.30;;;;;;5016115;28;20030;-37
2022/08/04 01:38:06;;;;;;;0.50;0.32;;;24.70;70.20;;;;;;5014640;28;20038;-37
2022/08/04 01:40:32;;;;;;;0.57;0.20;;;24.70;71.00;;;;;;5020007;28;20027;-35
2022/08/04 01:42:57;;;;;;;0.20;0.20;;;24.70;70.30;;;;;;4985851;28;20631;-37
2022/08/04 01:45:23;;;;;;;0.28;0.28;;;24.70;71.00;;;;;;4983895;28;20035;-42
2022/08/04 01:47:51;;;;;;;0.20;0.20;;;24.60;70.60;;;;;;4982498;28;20041;-37
2022/08/04 01:50:16;;;;;;;0.10;0.10;;;24.60;71.20;;;;;;4983505;28;20073;-36
2022/08/04 01:52:42;;;;;;;0.25;0.20;;;24.60;70.40;;;;;;4984651;28;20467;-42
2022/08/04 01:55:10;;;;;;;0.20;0.20;;;24.70;70.10;;;;;;4985944;28;20034;-37
2022/08/04 01:57:49;;;;;;;0.30;0.20;;;24.70;70.50;;;;;;4983043;28;20440;-37
2022/08/04 02:00:20;;;;;;;0.32;0.20;;;24.60;70.30;;;;;;4979098;28;20039;-37
2022/08/04 02:02:46;;;;;;;0.32;0.32;;;24.60;70.50;;;;;;4985989;28;20215;-37
2022/08/04 02:05:15;;;;;;;0.13;0.13;;;24.60;71.00;;;;;;4985182;28;20503;-38
2022/08/04 02:08:11;;;;;;;0.28;0.28;;;24.60;70.70;;;;;;4986692;28;20690;-36
2022/08/04 02:11:00;;;;;;;0.20;0.20;;;24.60;70.60;;;;;;4985698;28;22419;-37
2022/08/04 02:13:46;;;;;;;0.10;0.10;;;24.60;70.60;;;;;;5014230;28;20050;-39
2022/08/04 02:16:32;;;;;;;0.10;0.10;;;24.60;70.50;;;;;;4984572;28;20030;-37
2022/08/04 02:19:12;;;;;;;0.20;0.20;;;24.60;70.40;;;;;;4982260;28;20054;-40
2022/08/04 02:21:37;;;;;;;0.20;0.20;;;24.60;70.40;;;;;;5013824;28;20035;-40
2022/08/04 02:24:07;;;;;;;0.20;0.20;;;24.60;70.30;;;;;;5013826;28;20050;-38
2022/08/04 02:26:34;;;;;;;0.15;0.15;;;24.60;70.30;;;;;;4985989;28;20035;-39
2022/08/04 02:29:18;;;;;;;0.15;0.15;;;24.60;70.50;;;;;;4984166;28;20499;-39
2022/08/04 02:32:03;;;;;;;0.15;0.15;;;24.60;70.40;;;;;;4983064;28;20129;-40
2022/08/04 02:35:05;;;;;;;0.30;0.20;;;24.60;70.70;;;;;;4985675;28;20127;-39
2022/08/04 02:37:31;;;;;;;0.30;0.20;;;24.60;70.10;;;;;;4986257;28;20034;-38
2022/08/04 02:39:58;;;;;;;0.10;0.10;;;24.60;70.50;;;;;;4984266;28;20105;-41
2022/08/04 02:42:24;;;;;;;0.22;0.10;;;24.60;70.30;;;;;;4986055;28;20038;-40
2022/08/04 02:44:50;;;;;;;0.15;0.10;;;24.60;70.40;;;;;;4983401;28;20088;-42
2022/08/04 02:47:19;;;;;;;0.20;0.20;;;24.50;70.40;;;;;;4986336;28;20149;-38
2022/08/04 02:49:45;;;;;;;0.20;0.20;;;24.60;70.40;;;;;;4982128;28;20049;-38
2022/08/04 02:52:11;;;;;;;0.10;0.10;;;24.60;70.60;;;;;;5008607;28;20042;-39
2022/08/04 02:54:41;;;;;;;0.17;0.10;;;24.60;70.20;;;;;;4979442;28;20042;-42
2022/08/04 02:57:11;;;;;;;0.47;0.15;;;24.50;70.50;;;;;;4985767;28;20089;-39
2022/08/04 03:00:14;;;;;;;0.15;0.15;;;24.60;70.50;;;;;;4985105;28;20038;-40
2022/08/04 03:03:01;;;;;;;0.20;0.20;;;24.60;70.50;;;;;;4985018;28;20073;-40
2022/08/04 03:05:53;;;;;;;1.25;0.10;;;24.60;70.40;;;;;;5016807;28;20527;-42
2022/08/04 03:08:47;;;;;;;0.10;0.10;;;24.50;70.50;;;;;;4984756;28;20042;-41
2022/08/04 03:11:37;;;;;;;0.00;0.00;;;24.60;70.50;;;;;;4953361;28;20035;-43
2022/08/04 03:14:27;;;;;;;0.20;0.20;;;24.60;70.30;;;;;;4968590;28;20146;-35
2022/08/04 03:17:22;;;;;;;0.20;0.10;;;24.60;70.40;;;;;;4979290;28;20042;-40
2022/08/04 03:20:16;;;;;;;0.13;0.13;;;24.60;70.20;;;;;;4961610;28;20122;-39
2022/08/04 03:23:20;;;;;;;0.10;0.10;;;24.50;70.10;;;;;;4969199;28;20129;-39
2022/08/04 03:26:07;;;;;;;0.17;0.17;;;24.50;70.30;;;;;;4977193;28;20060;-39
2022/08/04 03:29:09;;;;;;;0.20;0.20;;;24.50;70.20;;;;;;4978810;28;20511;-39
2022/08/04 03:31:42;;;;;;;0.20;0.20;;;24.50;70.50;;;;;;4972914;28;20070;-38
2022/08/04 03:34:32;;;;;;;0.30;0.20;;;24.50;70.20;;;;;;4976146;28;20054;-40
2022/08/04 03:37:10;;;;;;;0.20;0.20;;;24.50;70.20;;;;;;4973152;28;20041;-40
2022/08/04 03:40:13;;;;;;;0.38;0.38;;;24.50;70.20;;;;;;4975462;28;20038;-37
2022/08/04 03:42:41;;;;;;;0.13;0.10;;;24.50;70.30;;;;;;4972813;28;20038;-40
2022/08/04 03:45:27;;;;;;;0.10;0.10;;;24.50;70.20;;;;;;4977294;28;20449;-37
2022/08/04 03:48:31;;;;;;;0.38;0.38;;;24.40;70.30;;;;;;4980278;28;20045;-40
2022/08/04 03:54:08;;;;;;;0.30;0.30;;;24.40;70.10;;;;;;4987547;28;20057;-40
2022/08/04 03:56:49;;;;;;;0.25;0.25;;;24.50;70.10;;;;;;5000617;28;20045;-40
2022/08/04 03:59:39;;;;;;;0.20;0.20;;;24.40;70.30;;;;;;4986076;28;20065;-37
2022/08/04 04:02:33;;;;;;;0.40;0.35;;;24.50;69.90;;;;;;4987323;28;20037;-40
2022/08/04 04:05:22;;;;;;;0.28;0.28;;;24.50;70.10;;;;;;5018964;28;20052;-40
2022/08/04 04:07:56;;;;;;;0.30;0.30;;;24.40;70.00;;;;;;5012137;28;20046;-39
2022/08/04 04:10:30;;;;;;;1.23;0.38;;;24.40;69.70;;;;;;4986423;28;20042;-41
2022/08/04 04:12:58;;;;;;;0.32;0.32;;;24.40;69.70;;;;;;5018163;28;20046;-39
2022/08/04 04:15:27;;;;;;;0.25;0.25;;;24.40;69.60;;;;;;4988565;28;20120;-38
2022/08/04 04:17:52;;;;;;;0.47;0.47;;;24.40;69.60;;;;;;4988493;28;20042;-37
2022/08/04 04:20:57;;;;;;;0.22;0.22;;;24.40;69.60;;;;;;4987594;28;20492;-37
2022/08/04 04:23:47;;;;;;;0.30;0.30;;;24.40;69.80;;;;;;4987750;28;20073;-39
2022/08/04 04:26:41;;;;;;;0.30;0.30;;;24.40;69.60;;;;;;4988195;28;20042;-38
2022/08/04 04:29:25;;;;;;;0.35;0.35;;;24.40;69.40;;;;;;4986967;28;20064;-39
2022/08/04 04:32:05;;;;;;;0.40;0.40;;;24.40;69.50;;;;;;4986582;28;20050;-39
2022/08/04 04:35:01;;;;;;;0.30;0.28;;;24.40;69.40;;;;;;4990756;28;20051;-38
2022/08/04 04:37:50;;;;;;;0.40;0.40;;;24.40;69.30;;;;;;4998285;28;20148;-38
2022/08/04 04:40:19;;;;;;;0.30;0.30;;;24.40;69.70;;;;;;5020155;28;20034;-31
2022/08/04 04:43:18;;;;;;;0.60;0.52;;;24.40;69.60;;;;;;4990581;28;20061;-40
2022/08/04 04:46:06;;;;;;;1.15;0.77;;;24.40;67.60;;;;;;4980946;28;20053;-38
2022/08/04 04:48:54;;;;;;;1.20;0.95;;;24.10;68.00;;;;;;5016211;28;20065;-39
2022/08/04 04:51:26;;;;;;;2.65;1.10;;;23.80;67.70;;;;;;4987868;28;20046;-40
2022/08/04 04:53:57;;;;;;;1.58;1.08;;;23.70;68.20;;;;;;4967552;28;20105;-38
2022/08/04 04:56:29;;;;;;;0.98;0.82;;;23.70;68.30;;;;;;4985646;28;20129;-40
2022/08/04 04:58:55;;;;;;;1.52;0.88;;;23.50;68.80;;;;;;4973065;28;20117;-43
2022/08/04 05:01:52;;;;;;;1.50;0.95;;;23.40;69.10;;;;;;5017650;28;20141;-40
2022/08/04 05:04:36;;;;;;;1.20;1.05;;;23.40;69.40;;;;;;4986869;28;20045;-39
2022/08/04 05:07:51;;;;;;;1.15;0.85;;;23.20;69.50;;;;;;5000824;28;20056;-40
2022/08/04 05:10:47;;;;;;;1.65;1.02;;;23.20;70.00;;;;;;4983888;28;20104;-39
2022/08/04 05:13:31;;;;;;;0.85;0.73;;;23.00;70.50;;;;;;4983769;28;20043;-38
2022/08/04 05:16:00;;;;;;;1.47;0.90;;;23.00;70.50;;;;;;4981944;28;20050;-42
2022/08/04 05:18:27;;;;;;;1.00;0.60;;;23.00;70.70;;;;;;4969520;28;20655;-38
2022/08/04 05:20:56;;;;;;;1.15;0.85;;;22.90;71.10;;;;;;4981344;28;20030;-39
2022/08/04 05:23:26;;;;;;;1.50;1.00;;;22.80;72.00;;;;;;4967296;28;20077;-40
2022/08/04 05:26:00;;;;;;;1.80;1.13;;;22.80;72.30;;;;;;4980290;28;20124;-37
2022/08/04 05:29:01;;;;;;;;;;;22.80;71.60;;;;;;4982287;28;20073;-41
2022/08/04 05:31:35;;;;;;;2.22;1.60;;;22.80;71.70;;;;;;4948166;28;19941;-39
2022/08/04 05:34:11;;;;;;;1.38;1.00;;;22.70;72.20;;;;;;4928398;28;20051;-41
2022/08/04 05:36:48;;;;;;;2.35;1.05;;;22.70;72.20;;;;;;4946936;28;20050;-39
2022/08/04 05:39:20;;;;;;;0.95;0.73;;;22.60;72.30;;;;;;4930558;28;20055;-38
2022/08/04 05:41:46;;;;;;;1.50;0.63;;;22.50;72.60;;;;;;4930438;28;20063;-39
2022/08/04 05:44:11;;;;;;;1.58;0.93;;;22.60;72.80;;;;;;4931525;28;20051;-38
2022/08/04 05:46:37;;;;;;;3.17;0.95;;;22.40;73.20;;;;;;4932089;28;20134;-41
2022/08/04 05:49:03;;;;;;;2.35;0.93;;;22.50;72.90;;;;;;4962246;28;20440;-39
2022/08/04 05:51:29;;;;;;;1.83;0.90;;;22.50;72.80;;;;;;4962087;28;20764;-39
2022/08/04 05:53:55;;;;;;;4.07;1.55;;;22.50;73.10;;;;;;4928628;28;20467;-37
2022/08/04 05:56:21;;;;;;;3.58;1.27;;;22.50;73.00;;;;;;4948037;28;20039;-39
2022/08/04 05:58:46;;;;;;;2.75;1.30;;;22.40;73.40;;;;;;4964011;28;20054;-37
2022/08/04 06:01:12;;;;;;;2.80;1.27;;;22.40;73.40;;;;;;4963334;28;20077;-43
2022/08/04 06:03:38;;;;;;;1.85;1.02;;;22.40;73.40;;;;;;4959114;28;20050;-36
2022/08/04 06:06:03;;;;;;;3.25;0.98;;;22.30;73.60;;;;;;5000594;28;20545;-39
2022/08/04 06:08:29;;;;;;;3.25;1.13;;;22.40;73.30;;;;;;4984656;28;20046;-39
2022/08/04 06:10:55;;;;;;;4.03;1.58;;;22.30;73.70;;;;;;4985649;28;20105;-39
2022/08/04 06:13:29;;;;;;;3.53;1.17;;;22.30;73.90;;;;;;5003682;28;20084;-38
2022/08/04 06:15:54;;;;;;;1.52;1.00;;;22.30;73.90;;;;;;4981866;28;20046;-39
2022/08/04 06:18:20;;;;;;;1.90;1.23;;;22.10;74.20;;;;;;4985099;28;20061;-39
2022/08/04 06:20:45;;;;;;;2.28;1.02;;;22.10;74.30;;;;;;4985387;28;20019;-28
2022/08/04 06:23:13;;;;;;;1.92;0.90;;;22.20;74.20;;;;;;5017816;28;20491;-36
2022/08/04 06:25:47;;;;;;;2.15;1.00;;;22.20;74.20;;;;;;4985100;28;20048;-37
2022/08/04 06:28:13;;;;;;;1.95;1.00;;;22.10;74.20;;;;;;5014631;28;20058;-40
2022/08/04 06:30:39;;;;;;;3.05;1.30;;;22.20;74.50;;;;;;4996756;28;20128;-39
2022/08/04 06:33:22;;;;;;;2.88;1.30;;;22.10;74.50;;;;;;4982452;28;20157;-33
2022/08/04 06:35:48;;;;;;;1.80;0.80;;;22.20;74.40;;;;;;5009262;28;20114;-37
2022/08/04 06:38:13;;;;;;;3.13;1.00;;;22.10;74.50;;;;;;4989730;28;20477;-39
2022/08/04 06:40:39;;;;;;;2.88;1.10;;;22.10;74.50;;;;;;4986881;28;20042;-39
2022/08/04 06:43:05;;;;;;;2.80;1.20;;;22.00;74.80;;;;;;5000607;28;20049;-37
2022/08/04 06:45:33;;;;;;;3.65;1.25;;;22.10;75.00;;;;;;5015182;28;20054;-40
2022/08/04 06:47:58;;;;;;;3.03;1.00;;;22.10;74.80;;;;;;4996515;28;20055;-34
2022/08/04 06:50:24;;;;;;;3.80;1.25;;;22.10;74.80;;;;;;4985447;28;20098;-38
2022/08/04 06:52:50;;;;;;;2.65;1.20;;;22.10;74.80;;;;;;4984371;28;20573;-42
2022/08/04 06:55:15;;;;;;;1.63;0.95;;;22.10;74.80;;;;;;4990660;28;20431;-35
2022/08/04 06:57:41;;;;;;;1.17;0.82;;;22.20;74.60;;;;;;4989105;28;20038;-40
2022/08/04 07:00:09;;;;;;;3.28;1.25;;;22.10;75.60;;;;;;4989221;28;20121;-42
2022/08/04 07:02:50;;;;;;;1.83;1.20;;;22.10;74.60;;;;;;4989454;28;20510;-39
2022/08/04 07:05:15;;;;;;;3.08;1.67;;;22.10;74.70;;;;;;4990218;28;20053;-34
2022/08/04 07:07:41;;;;;;;1.20;1.00;;;22.10;74.60;;;;;;5006951;28;20412;-39
2022/08/04 07:10:07;;;;;;;2.72;1.02;;;22.10;74.90;;;;;;4992097;28;20042;-38
2022/08/04 07:12:33;;;;;;;2.40;1.00;;;22.10;74.60;;;;;;5016272;28;20054;-38
2022/08/04 07:14:58;;;;;;;2.05;1.00;;;22.10;74.60;;;;;;4985223;28;20050;-38
2022/08/04 07:17:24;;;;;;;3.33;1.23;;;22.10;74.90;;;;;;4999866;28;20055;-38
2022/08/04 07:19:51;;;;;;;2.53;1.45;;;22.10;74.50;;;;;;5011809;28;20035;-38
2022/08/04 07:22:17;;;;;;;3.15;1.50;;;22.10;74.30;;;;;;5014948;28;20046;-41
2022/08/04 07:24:43;;;;;;;2.53;1.30;;;22.10;74.30;;;;;;4985648;28;20392;-38
2022/08/04 07:27:08;;;;;;;3.78;1.17;;;22.10;74.30;;;;;;5013441;28;20061;-39
2022/08/04 07:29:34;;;;;;;1.65;0.82;;;22.10;74.40;;;;;;4984361;28;20058;-36
2022/08/04 07:32:00;;;;;;;2.42;1.02;;;22.10;74.20;;;;;;4983496;28;20523;-36
2022/08/04 07:34:25;;;;;;;2.70;1.30;;;22.10;74.50;;;;;;5002596;28;20483;-39
2022/08/04 07:36:55;;;;;;;2.47;1.45;;;22.10;74.40;;;;;;4997424;28;20052;-39
2022/08/04 07:39:21;;;;;;;2.28;1.10;;;22.10;74.10;;;;;;4982439;28;20038;-39
2022/08/04 07:41:47;;;;;;;2.28;1.10;;;22.20;74.00;;;;;;5009572;28;20128;-39
2022/08/04 07:44:13;;;;;;;2.40;1.08;;;22.10;73.70;;;;;;5014601;28;20411;-40
2022/08/04 07:46:39;;;;;;;2.03;1.13;;;22.20;74.30;;;;;;4982998;28;20511;-39
2022/08/04 07:49:05;;;;;;;1.48;1.10;;;22.20;73.60;;;;;;4997978;28;20081;-39
2022/08/04 07:51:31;;;;;;;2.38;1.33;;;22.20;73.80;;;;;;4987141;28;20187;-39
2022/08/04 07:53:56;;;;;;;2.20;1.10;;;22.20;73.70;;;;;;4982061;28;20431;-38
2022/08/04 07:56:22;;;;;;;2.97;0.85;;;22.20;73.40;;;;;;4984963;28;20406;-37
2022/08/04 07:58:47;;;;;;;2.05;1.08;;;22.20;73.30;;;;;;4987862;28;20092;-38
2022/08/04 08:01:13;;;;;;;2.42;1.08;;;22.20;72.90;;;;;;5019304;28;20051;-37
2022/08/04 08:03:38;;;;;;;2.33;1.00;;;22.20;73.10;;;;;;4988695;28;20034;-39
2022/08/04 08:06:04;;;;;;;1.90;1.42;;;22.30;72.80;;;;;;4985593;28;20031;-38
2022/08/04 08:08:30;;;;;;;3.25;1.40;;;22.40;72.70;;;;;;5020522;28;20427;-36
2022/08/04 08:10:55;;;;;;;1.90;0.90;;;22.40;72.30;;;;;;4984116;28;20066;-40
2022/08/04 08:13:21;;;;;;;1.30;0.90;;;22.30;72.50;;;;;;4987496;28;20046;-39
2022/08/04 08:15:46;;;;;;;4.60;0.80;;;22.40;72.40;;;;;;4988519;28;20042;-39
2022/08/04 08:18:12;;;;;;;2.33;1.10;;;22.40;72.00;;;;;;4983565;28;20159;-40
2022/08/04 08:20:38;;;;;;;2.33;1.00;;;22.50;71.70;;;;;;4984272;28;20046;-43
2022/08/04 08:23:03;;;;;;;1.48;1.00;;;22.50;70.70;;;;;;4985464;28;20408;-39
2022/08/04 08:25:31;;;;;;;2.13;1.10;;;22.50;70.40;;;;;;4981768;28;20046;-42
2022/08/04 08:27:56;;;;;;;1.92;0.80;;;22.50;70.00;;;;;;4985304;28;20345;-40
2022/08/04 08:30:23;;;;;;;1.45;0.93;;;22.50;69.70;;;;;;5015663;28;20270;-38
2022/08/04 08:32:49;;;;;;;2.08;1.08;;;22.50;69.40;;;;;;4985375;28;20145;-40
2022/08/04 08:35:14;;;;;;;1.52;0.90;;;22.50;69.00;;;;;;5015928;28;20062;-41
2022/08/04 08:37:44;;;;;;;1.30;0.65;;;22.60;68.40;;;;;;4982076;28;20178;-41
2022/08/04 08:40:53;;;;;;;2.92;0.90;;;22.60;68.20;;;;;;4997541;28;20066;-39
2022/08/04 08:43:31;;;;;;;0.90;0.80;;;22.50;68.20;;;;;;4944731;28;20436;-40
2022/08/04 08:46:35;;;;;;;1.45;0.90;;;22.50;67.80;;;;;;4944259;28;20062;-35
2022/08/04 08:49:02;;;;;;;1.30;0.63;;;22.60;67.50;;;;;;4865763;29;20521;-39
2022/08/04 08:51:32;;;;;;;1.63;0.70;;;22.60;67.20;;;;;;4868957;29;20105;-39
2022/08/04 08:54:06;;;;;;;1.23;0.80;;;22.60;67.10;;;;;;4866750;29;20141;-39
2022/08/04 08:56:51;;;;;;;1.60;0.80;;;22.70;67.00;;;;;;4867912;29;20049;-40
2022/08/04 08:59:28;;;;;;;1.25;0.63;;;22.70;67.30;;;;;;4846973;29;20137;-41
2022/08/04 09:02:02;;;;;;;2.03;1.10;;;22.80;67.30;;;;;;4866321;29;20530;-39
2022/08/04 09:04:46;;;;;;;4.28;0.75;;;22.80;66.90;;;;;;4865002;29;20068;-41
2022/08/04 09:07:41;;;;;;;1.38;0.70;;;22.90;66.80;;;;;;4863343;29;20513;-39
2022/08/04 09:10:25;;;;;;;;;;;22.90;65.70;;;;;;4852234;29;20083;-36
2022/08/04 09:13:10;;;;;;;0.80;0.45;;;23.00;64.70;;;;;;4861926;29;19968;-39
2022/08/04 09:15:58;;;;;;;1.02;0.70;;;22.90;64.70;;;;;;4882352;29;20129;-41
2022/08/04 09:18:33;;;;;;;0.93;0.65;;;23.10;65.10;;;;;;4886968;29;20115;-40
2022/08/04 09:21:05;;;;;;;1.40;0.80;;;23.10;64.80;;;;;;4976291;28;20109;-41
2022/08/04 09:23:55;;;;;;;0.85;0.68;;;23.10;64.30;;;;;;4981942;28;20093;-41
2022/08/04 09:26:28;;;;;;;0.77;0.60;;;23.10;63.70;;;;;;4979259;28;20170;-41
2022/08/04 09:29:26;;;;;;;2.10;0.90;;;23.20;63.80;;;;;;4993131;28;20066;-39
2022/08/04 09:32:21;;;;;;;1.08;0.55;;;23.30;63.50;;;;;;4978655;28;20073;-40
2022/08/04 09:35:02;;;;;;;1.90;0.70;;;23.20;63.50;;;;;;4976122;28;20049;-40
2022/08/04 09:38:05;;;;;;;1.35;0.63;;;23.20;62.60;;;;;;4976808;28;20747;-40
2022/08/04 09:41:06;;;;;;;0.88;0.63;;;23.30;61.60;;;;;;4984256;28;20046;-40
2022/08/04 09:43:53;;;;;;;1.15;0.60;;;23.30;61.50;;;;;;4953758;28;20058;-42
2022/08/04 09:46:29;;;;;;;0.70;0.60;;;23.30;62.40;;;;;;4974772;28;20401;-39
2022/08/04 09:49:09;;;;;;;2.15;0.90;;;23.40;61.50;;;;;;4999276;28;20639;-40
2022/08/04 09:51:52;;;;;;;1.63;0.75;;;23.40;62.10;;;;;;4658614;28;10000399;-40
2022/08/04 09:54:22;;;;;;;1.35;0.70;;;23.40;62.30;;;;;;4977628;28;20722;-41
2022/08/04 09:57:10;;;;;;;3.50;0.88;;;23.40;62.40;;;;;;4979362;28;20042;-39
2022/08/04 09:59:56;;;;;;;1.30;0.63;;;23.40;62.40;;;;;;4651614;28;9999935;-39
2022/08/04 10:02:22;;;;;;;1.08;0.60;;;23.50;61.80;;;;;;4977004;28;21620;-39
2022/08/04 10:04:47;;;;;;;1.92;0.80;;;23.40;61.80;;;;;;4977166;28;20579;-37
2022/08/04 10:07:33;;;;;;;0.85;0.60;;;23.50;61.90;;;;;;5010080;28;20148;-42
2022/08/04 10:10:11;;;;;;;0.93;0.50;;;23.40;61.70;;;;;;4987285;28;20039;-38
2022/08/04 10:12:54;;;;;;;2.28;0.80;;;23.50;61.20;;;;;;4979647;28;20517;-40
2022/08/04 10:15:22;;;;;;;0.73;0.50;;;23.60;60.50;;;;;;4977649;28;20062;-39
2022/08/04 10:18:22;;;;;;;1.85;0.75;;;23.50;60.20;;;;;;4974907;28;20079;-40
2022/08/04 10:21:07;;;;;;;1.92;0.63;;;23.50;61.30;;;;;;4974828;28;20049;-38
2022/08/04 10:23:39;;;;;;;0.60;0.50;;;23.50;61.20;;;;;;5004033;28;20108;-40
2022/08/04 10:26:42;;;;;;;5.05;1.33;;;23.60;61.80;;;;;;5005555;28;20046;-38
2022/08/04 10:29:42;;;;;;;3.10;1.13;;;23.70;61.00;;;;;;4972039;28;20582;-39
2022/08/04 10:32:33;;;;;;;0.88;0.50;;;23.60;60.90;;;;;;4978415;28;20046;-40
2022/08/04 10:35:18;;;;;;;0.60;0.40;;;23.70;60.90;;;;;;4987125;28;20058;-41
2022/08/04 10:37:50;;;;;;;1.48;0.57;;;23.70;60.40;;;;;;4992850;28;20045;-42
2022/08/04 10:40:36;;;;;;;1.27;0.65;;;23.60;60.20;;;;;;4980039;28;20496;-40
2022/08/04 10:43:18;;;;;;;1.40;0.52;;;23.70;60.30;;;;;;4978759;28;20069;-39
2022/08/04 10:45:47;;;;;;;0.70;0.40;;;23.70;60.20;;;;;;5009558;28;20054;-39
2022/08/04 10:48:35;;;;;;;1.60;0.80;;;23.70;60.10;;;;;;5011419;28;20046;-40
2022/08/04 10:51:38;;;;;;;0.55;0.38;;;23.70;60.40;;;;;;4980687;28;20037;-38
2022/08/04 10:54:12;;;;;;;0.85;0.63;;;23.70;60.00;;;;;;4627591;28;9999870;-42
2022/08/04 10:56:49;;;;;;;0.70;0.45;;;23.80;60.50;;;;;;5011690;28;20074;-40
2022/08/04 10:59:23;;;;;;;1.40;0.60;;;23.80;61.00;;;;;;4992810;28;20033;-39
2022/08/04 11:01:50;;;;;;;0.80;0.60;;;23.80;60.90;;;;;;4992797;28;20601;-39
2022/08/04 11:04:25;;;;;;;0.75;0.40;;;23.80;60.70;;;;;;5008888;28;20385;-40
2022/08/04 11:06:51;;;;;;;1.63;0.93;;;23.90;60.20;;;;;;4977737;28;20089;-43
2022/08/04 11:09:17;;;;;;;0.60;0.50;;;23.90;60.60;;;;;;4990656;28;20073;-40
2022/08/04 11:11:46;;;;;;;0.95;0.50;;;23.80;60.70;;;;;;4977188;28;20125;-40
2022/08/04 11:14:18;;;;;;;1.67;0.52;;;23.80;59.80;;;;;;4989861;28;20527;-39
2022/08/04 11:16:50;;;;;;;0.68;0.50;;;23.90;59.60;;;;;;5006922;28;20074;-40
2022/08/04 11:19:24;;;;;;;0.80;0.40;;;23.90;60.10;;;;;;4989409;28;20034;-40
2022/08/04 11:21:58;;;;;;;0.98;0.50;;;23.90;60.20;;;;;;5010474;28;22145;-40
2022/08/04 11:24:36;;;;;;;0.70;0.60;;;23.90;59.70;;;;;;4989409;28;20069;-40
2022/08/04 11:27:09;;;;;;;0.88;0.40;;;23.90;59.60;;;;;;4991789;28;20411;-40
2022/08/04 11:29:41;;;;;;;0.30;0.28;;;24.00;60.00;;;;;;5008579;28;20108;-40
2022/08/04 11:32:10;;;;;;;1.33;0.50;;;24.00;60.20;;;;;;4975191;28;20061;-40
2022/08/04 11:34:35;;;;;;;0.75;0.40;;;24.00;59.80;;;;;;5011784;28;20696;-42
2022/08/04 11:37:17;;;;;;;2.47;0.50;;;24.00;60.30;;;;;;4977534;28;20362;-40
2022/08/04 11:40:06;;;;;;;2.70;0.50;;;24.00;59.90;;;;;;4977847;28;20133;-41
2022/08/04 11:42:40;;;;;;;0.82;0.40;;;24.00;59.60;;;;;;4970349;28;20046;-43
2022/08/04 11:45:16;;;;;;;1.65;0.98;;;24.10;59.40;;;;;;4979412;28;20053;-40
2022/08/04 11:47:47;;;;;;;1.05;0.60;;;24.10;59.50;;;;;;4995478;28;20419;-39
2022/08/04 11:50:12;;;;;;;0.47;0.47;;;24.10;59.80;;;;;;5006503;28;20056;-38
2022/08/04 11:52:39;;;;;;;1.65;0.45;;;24.10;60.20;;;;;;4983900;28;20846;-41
2022/08/04 11:55:07;;;;;;;1.65;0.70;;;24.10;60.30;;;;;;4982323;28;20061;-39
2022/08/04 11:57:33;;;;;;;0.70;0.43;;;24.10;60.20;;;;;;4997364;28;20091;-39
2022/08/04 11:59:58;;;;;;;0.98;0.40;;;24.20;60.70;;;;;;5013199;28;20161;-40
2022/08/04 12:02:48;;;;;;;1.85;0.40;;;24.10;60.60;;;;;;5012032;28;23311;-40
2022/08/04 12:05:14;;;;;;;0.88;0.40;;;24.10;60.80;;;;;;4986367;28;20043;-38
2022/08/04 12:07:58;;;;;;;0.68;0.30;;;24.10;60.90;;;;;;5001955;28;20049;-40
2022/08/04 12:11:02;;;;;;;0.77;0.40;;;24.10;61.20;;;;;;4985336;28;20504;-39
2022/08/04 12:13:34;;;;;;;0.93;0.50;;;24.10;61.20;;;;;;4986948;28;20100;-39
2022/08/04 12:16:14;;;;;;;0.57;0.40;;;24.10;61.70;;;;;;4984417;28;20042;-39
2022/08/04 12:18:53;;;;;;;0.70;0.60;;;24.10;61.60;;;;;;4982642;28;20042;-40
2022/08/04 12:21:35;;;;;;;0.95;0.82;;;24.10;61.90;;;;;;4633323;28;9999732;-40
2022/08/04 12:24:02;;;;;;;0.60;0.40;;;24.10;62.10;;;;;;4979899;28;20034;-38
2022/08/04 12:26:34;;;;;;;1.50;0.57;;;24.20;61.70;;;;;;4979696;28;20117;-40
2022/08/04 12:29:00;;;;;;;0.80;0.40;;;24.20;62.20;;;;;;4995403;28;20038;-41
2022/08/04 12:31:39;;;;;;;1.08;0.55;;;24.20;62.20;;;;;;4993542;28;20520;-41
2022/08/04 12:34:21;;;;;;;1.15;0.50;;;24.20;62.20;;;;;;4994897;28;20078;-38
2022/08/04 12:37:00;;;;;;;0.82;0.40;;;24.20;62.70;;;;;;5011590;28;20140;-42
2022/08/04 12:39:26;;;;;;;0.50;0.40;;;24.20;62.70;;;;;;4982751;28;20130;-40
2022/08/04 12:42:01;;;;;;;0.80;0.40;;;24.30;62.80;;;;;;4995802;28;20034;-38
2022/08/04 12:44:34;;;;;;;0.50;0.35;;;24.30;63.10;;;;;;4978222;28;20882;-43
2022/08/04 12:47:01;;;;;;;1.25;0.60;;;24.30;63.00;;;;;;4984050;28;20050;-38
2022/08/04 12:49:26;;;;;;;1.13;0.52;;;24.30;63.00;;;;;;4980888;28;20042;-41
2022/08/04 12:51:52;;;;;;;0.57;0.40;;;24.30;63.10;;;;;;5000251;28;20041;-40
2022/08/04 12:54:25;;;;;;;1.30;0.50;;;24.30;62.90;;;;;;4981073;28;20046;-40
2022/08/04 12:56:50;;;;;;;2.47;0.60;;;24.30;63.50;;;;;;4978499;28;20047;-41
2022/08/04 12:59:16;;;;;;;1.10;0.73;;;24.40;63.40;;;;;;5013327;28;20503;-40
2022/08/04 13:01:46;;;;;;;0.82;0.40;;;24.40;63.40;;;;;;4980606;28;20054;-37
2022/08/04 13:04:15;;;;;;;1.55;0.52;;;24.40;63.40;;;;;;4982809;28;20105;-39
2022/08/04 13:06:41;;;;;;;1.02;0.63;;;24.40;63.60;;;;;;4634823;28;10000551;-37
2022/08/04 13:09:17;;;;;;;0.50;0.50;;;24.40;63.60;;;;;;4978560;28;20057;-39
2022/08/04 13:11:49;;;;;;;0.60;0.43;;;24.40;63.40;;;;;;4978130;28;20266;-40
2022/08/04 13:14:15;;;;;;;0.50;0.43;;;24.40;63.50;;;;;;4995418;28;20153;-41
2022/08/04 13:16:41;;;;;;;2.15;0.60;;;24.40;63.40;;;;;;5012858;28;20049;-37
2022/08/04 13:19:07;;;;;;;0.77;0.40;;;24.40;63.60;;;;;;4981183;28;20042;-35
2022/08/04 13:21:33;;;;;;;1.88;0.68;;;24.50;63.70;;;;;;4994071;28;20055;-39
2022/08/04 13:24:04;;;;;;;0.52;0.45;;;24.40;63.20;;;;;;4979940;28;20058;-42
2022/08/04 13:26:29;;;;;;;0.70;0.50;;;24.50;63.30;;;;;;5012364;28;20039;-39
2022/08/04 13:28:59;;;;;;;2.70;0.50;;;24.50;63.30;;;;;;4996763;28;20096;-46
2022/08/04 13:31:26;;;;;;;3.08;0.60;;;24.50;63.30;;;;;;4997999;28;20046;-43
2022/08/04 13:33:53;;;;;;;2.67;0.70;;;24.50;63.20;;;;;;5012317;28;20050;-41